Time;durP1;ratioP1;P1;durP2;ratioP2;P2;SDS_P1;SDS_P2;PMS_P1;PMS_P2;Temp;Humidity;BMP_temperature;BMP_pressure;BME280_temperature;BME280_humidity;BME280_pressure;Samples;Min_cycle;Max_cycle;Signal;HPM_P1;HPM_P2
2021/12/31 00:02:07;;;;;;;2.95;2.00;;;;;;;-140.79;100.00;63287.88;5025099;28;20107;-53
2021/12/31 00:04:33;;;;;;;3.53;2.60;;;;;;;-140.79;100.00;63287.88;5024778;28;20029;-53
2021/12/31 00:06:58;;;;;;;3.42;2.33;;;;;;;-140.79;100.00;63287.88;5024958;28;20026;-53
2021/12/31 00:09:24;;;;;;;3.50;2.35;;;;;;;-140.79;100.00;63287.88;5025029;28;20021;-52
2021/12/31 00:11:49;;;;;;;4.05;2.75;;;;;;;-140.79;100.00;63287.88;5025108;28;20033;-53
2021/12/31 00:14:15;;;;;;;2.80;2.13;;;;;;;-140.79;100.00;63287.88;5024761;28;20021;-52
2021/12/31 00:16:40;;;;;;;2.80;2.00;;;;;;;-140.79;100.00;63287.88;5024533;28;20056;-52
2021/12/31 00:19:06;;;;;;;3.28;2.22;;;;;;;-140.79;100.00;63287.88;5023751;28;20075;-53
2021/12/31 00:21:36;;;;;;;2.75;2.05;;;;;;;-140.79;100.00;63287.88;5024860;28;20428;-53
2021/12/31 00:24:02;;;;;;;3.08;2.22;;;;;;;-140.79;100.00;63287.88;5024851;28;20064;-53
2021/12/31 00:26:27;;;;;;;3.00;2.05;;;;;;;-140.79;100.00;63287.88;5024287;28;20500;-52
2021/12/31 00:28:53;;;;;;;2.70;1.80;;;;;;;-140.79;100.00;63287.88;5024545;28;20065;-53
2021/12/31 00:31:18;;;;;;;2.83;2.15;;;;;;;-140.79;100.00;63287.88;5024697;28;20034;-53
2021/12/31 00:33:43;;;;;;;3.28;2.22;;;;;;;-140.79;100.00;63287.88;5024339;28;20033;-53
2021/12/31 00:36:09;;;;;;;3.15;2.17;;;;;;;-140.79;100.00;63287.88;5024421;28;20087;-53
2021/12/31 00:38:34;;;;;;;2.97;2.25;;;;;;;-140.79;100.00;63287.88;5027717;28;20030;-53
2021/12/31 00:41:00;;;;;;;3.03;2.05;;;;;;;-140.79;100.00;63287.88;5028569;28;20037;-54
2021/12/31 00:43:25;;;;;;;2.92;2.15;;;;;;;-140.79;100.00;63287.88;5028603;28;20491;-54
2021/12/31 00:45:51;;;;;;;3.20;1.92;;;;;;;-140.79;100.00;63287.88;5028394;28;20502;-51
2021/12/31 00:48:16;;;;;;;3.22;2.30;;;;;;;-140.79;100.00;63287.88;5028516;28;20543;-53
2021/12/31 00:50:41;;;;;;;3.20;2.20;;;;;;;-140.79;100.00;63287.88;5043177;28;20037;-53
2021/12/31 00:53:07;;;;;;;2.97;2.10;;;;;;;-140.79;100.00;63287.88;5028147;28;20064;-53
2021/12/31 00:55:33;;;;;;;3.05;2.22;;;;;;;-140.79;100.00;63287.88;5028272;28;20033;-52
2021/12/31 00:57:58;;;;;;;2.78;2.10;;;;;;;-140.79;100.00;63287.88;5028158;28;20041;-53
2021/12/31 01:00:23;;;;;;;3.25;2.38;;;;;;;-140.79;100.00;63287.88;5028133;28;20041;-53
2021/12/31 01:02:49;;;;;;;2.95;2.13;;;;;;;-140.79;100.00;63287.88;5027794;28;20032;-53
2021/12/31 01:05:15;;;;;;;3.47;2.50;;;;;;;-140.79;100.00;63287.88;5028023;28;20049;-53
2021/12/31 01:07:40;;;;;;;2.90;2.05;;;;;;;-140.79;100.00;63287.88;5027771;28;20071;-52
2021/12/31 01:10:06;;;;;;;2.90;2.22;;;;;;;-140.79;100.00;63287.88;5027993;28;20113;-53
2021/12/31 01:12:32;;;;;;;3.20;2.30;;;;;;;-140.79;100.00;63287.88;5043219;28;20079;-53
2021/12/31 01:15:11;;;;;;;3.30;2.42;;;;;;;-140.79;100.00;63287.88;5027913;28;20496;-52
2021/12/31 01:18:04;;;;;;;2.90;2.25;;;;;;;-140.79;100.00;63287.88;5027958;28;20022;-53
2021/12/31 01:20:29;;;;;;;3.00;2.30;;;;;;;-140.79;100.00;63287.88;5027390;28;20025;-53
2021/12/31 01:22:54;;;;;;;3.25;2.40;;;;;;;-140.79;100.00;63287.88;5027280;28;20029;-52
2021/12/31 01:25:20;;;;;;;3.40;2.60;;;;;;;-140.79;100.00;63287.88;5027564;28;20013;-52
2021/12/31 01:27:45;;;;;;;2.85;2.15;;;;;;;-140.79;100.00;63287.88;5027274;28;20025;-53
2021/12/31 01:30:13;;;;;;;3.25;2.33;;;;;;;-140.79;100.00;63287.88;5027286;28;20033;-53
2021/12/31 01:32:40;;;;;;;3.35;2.30;;;;;;;-140.79;100.00;63287.88;5042041;28;20044;-51
2021/12/31 01:35:05;;;;;;;3.83;2.60;;;;;;;-140.79;100.00;63287.88;5027198;28;20059;-52
2021/12/31 01:37:31;;;;;;;3.45;2.50;;;;;;;-140.79;100.00;63287.88;5027243;28;20025;-52
2021/12/31 01:39:56;;;;;;;2.95;2.05;;;;;;;-140.79;100.00;63287.88;5027024;28;20069;-53
2021/12/31 01:42:33;;;;;;;3.17;2.25;;;;;;;-140.79;100.00;63287.88;5026935;28;20033;-52
2021/12/31 01:45:10;;;;;;;2.90;2.28;;;;;;;-140.79;100.00;63287.88;5027013;28;20029;-52
2021/12/31 01:50:29;;;;;;;3.00;2.05;;;;;;;-140.79;100.00;63287.88;5026699;28;20063;-52
2021/12/31 01:52:54;;;;;;;3.17;2.30;;;;;;;-140.79;100.00;63287.88;5010778;28;20686;-53
2021/12/31 01:55:21;;;;;;;3.63;2.33;;;;;;;-140.79;100.00;63287.88;5042250;28;20117;-53
2021/12/31 01:57:47;;;;;;;2.97;2.25;;;;;;;-140.79;100.00;63287.88;5025328;28;20034;-52
2021/12/31 02:00:12;;;;;;;3.03;2.20;;;;;;;-140.79;100.00;63287.88;5042089;28;20467;-52
2021/12/31 02:02:38;;;;;;;3.50;2.42;;;;;;;-140.79;100.00;63287.88;5026379;28;20040;-53
2021/12/31 02:05:04;;;;;;;3.17;2.40;;;;;;;-140.79;100.00;63287.88;5041810;28;20443;-52
2021/12/31 02:07:30;;;;;;;3.67;2.70;;;;;;;-140.79;100.00;63287.88;5026622;28;20058;-53
2021/12/31 02:09:56;;;;;;;3.65;2.30;;;;;;;-140.79;100.00;63287.88;5026524;28;20080;-52
2021/12/31 02:12:22;;;;;;;3.25;2.08;;;;;;;-140.79;100.00;63287.88;5026498;28;20484;-53
2021/12/31 02:14:51;;;;;;;2.75;2.22;;;;;;;-140.79;100.00;63287.88;5026216;28;20420;-53
2021/12/31 02:17:17;;;;;;;3.55;2.42;;;;;;;-140.79;100.00;63287.88;5026428;28;20040;-53
2021/12/31 02:20:00;;;;;;;3.30;2.15;;;;;;;-140.79;100.00;63287.88;5026572;28;20029;-53
2021/12/31 02:22:28;;;;;;;3.15;2.17;;;;;;;-140.79;100.00;63287.88;5026277;28;20053;-53
2021/12/31 02:24:55;;;;;;;3.00;2.20;;;;;;;-140.79;100.00;63287.88;5026300;28;20083;-53
2021/12/31 02:27:21;;;;;;;2.92;2.15;;;;;;;-140.79;100.00;63287.88;5026043;28;20761;-52
2021/12/31 02:29:46;;;;;;;3.80;2.53;;;;;;;-140.79;100.00;63287.88;5026351;28;20094;-52
2021/12/31 02:32:12;;;;;;;2.97;2.20;;;;;;;-140.79;100.00;63287.88;5026257;28;20034;-53
2021/12/31 02:34:37;;;;;;;3.40;2.42;;;;;;;-140.79;100.00;63287.88;5024284;28;20041;-52
2021/12/31 02:37:03;;;;;;;3.17;2.40;;;;;;;-140.79;100.00;63287.88;5041377;28;20115;-52
2021/12/31 02:39:28;;;;;;;4.30;2.90;;;;;;;-140.79;100.00;63287.88;5025918;28;20040;-53
2021/12/31 02:41:54;;;;;;;3.10;2.38;;;;;;;-140.79;100.00;63287.88;5024998;28;20482;-53
2021/12/31 02:44:19;;;;;;;3.55;2.58;;;;;;;-140.79;100.00;63287.88;5026096;28;20480;-52
2021/12/31 02:46:45;;;;;;;3.30;2.40;;;;;;;-140.79;100.00;63287.88;5025565;28;20048;-53
2021/12/31 02:49:10;;;;;;;3.33;2.17;;;;;;;-140.79;100.00;63287.88;5026038;28;20033;-52
2021/12/31 02:51:36;;;;;;;3.50;2.67;;;;;;;-140.79;100.00;63287.88;5026030;28;20033;-53
2021/12/31 02:54:03;;;;;;;3.05;2.40;;;;;;;-140.79;100.00;63287.88;5025961;28;20476;-53
2021/12/31 02:56:29;;;;;;;3.15;2.40;;;;;;;-140.79;100.00;63287.88;5041177;28;20116;-53
2021/12/31 02:58:55;;;;;;;3.35;2.80;;;;;;;-140.79;100.00;63287.88;5024372;28;20026;-53
2021/12/31 03:01:20;;;;;;;3.30;2.50;;;;;;;-140.79;100.00;63287.88;5040834;28;20029;-53
2021/12/31 03:03:47;;;;;;;3.33;2.60;;;;;;;-140.79;100.00;63287.88;5024495;28;20035;-53
2021/12/31 03:06:13;;;;;;;3.42;2.65;;;;;;;-140.79;100.00;63287.88;5024597;28;20038;-53
2021/12/31 03:08:50;;;;;;;3.40;2.25;;;;;;;-140.79;100.00;63287.88;5025188;28;20045;-53
2021/12/31 03:11:18;;;;;;;3.53;2.55;;;;;;;-140.79;100.00;63287.88;5025979;28;20240;-54
2021/12/31 03:13:44;;;;;;;3.08;2.35;;;;;;;-140.79;100.00;63287.88;5025713;28;20468;-52
2021/12/31 03:16:09;;;;;;;2.95;2.08;;;;;;;-140.79;100.00;63287.88;5024349;28;20116;-52
2021/12/31 03:18:35;;;;;;;2.70;2.42;;;;;;;-140.79;100.00;63287.88;5025168;28;20033;-53
2021/12/31 03:21:10;;;;;;;3.17;2.47;;;;;;;-140.79;100.00;63287.88;5024245;28;20052;-52
2021/12/31 03:23:36;;;;;;;2.78;2.22;;;;;;;-140.79;100.00;63287.88;5025193;28;20124;-54
2021/12/31 03:26:01;;;;;;;2.97;2.50;;;;;;;-140.79;100.00;63287.88;5025505;28;20103;-53
2021/12/31 03:28:27;;;;;;;3.13;2.33;;;;;;;-140.79;100.00;63287.88;5025248;28;20491;-54
2021/12/31 03:30:53;;;;;;;2.95;2.20;;;;;;;-140.79;100.00;63287.88;5040596;28;20087;-52
2021/12/31 03:33:18;;;;;;;3.53;2.58;;;;;;;-140.79;100.00;63287.88;5025543;28;20021;-54
2021/12/31 03:35:43;;;;;;;2.90;2.25;;;;;;;-140.79;100.00;63287.88;5025311;28;20040;-54
2021/12/31 03:38:09;;;;;;;2.95;2.20;;;;;;;-140.79;100.00;63287.88;5025459;28;20051;-53
2021/12/31 03:40:35;;;;;;;4.15;2.70;;;;;;;-140.79;100.00;63287.88;5024713;28;20041;-53
2021/12/31 03:43:00;;;;;;;2.78;2.42;;;;;;;-140.79;100.00;63287.88;5025274;28;20127;-53
2021/12/31 03:45:26;;;;;;;3.28;2.45;;;;;;;-140.79;100.00;63287.88;5024952;28;20396;-53
2021/12/31 03:47:51;;;;;;;3.20;2.47;;;;;;;-140.79;100.00;63287.88;5024950;28;20424;-53
2021/12/31 03:50:16;;;;;;;4.15;2.83;;;;;;;-140.79;100.00;63287.88;5024962;28;20491;-53
2021/12/31 03:52:42;;;;;;;3.55;2.63;;;;;;;-140.79;100.00;63287.88;5024662;28;20033;-53
2021/12/31 03:55:09;;;;;;;3.40;2.85;;;;;;;-140.79;100.00;63287.88;5024747;28;20037;-53
2021/12/31 03:57:35;;;;;;;3.40;2.60;;;;;;;-140.79;100.00;63287.88;5024950;28;20169;-53
2021/12/31 04:00:00;;;;;;;3.10;2.35;;;;;;;-140.79;100.00;63287.88;5025128;28;20407;-53
2021/12/31 04:02:26;;;;;;;3.88;2.92;;;;;;;-140.79;100.00;63287.88;5024738;28;20041;-53
2021/12/31 04:04:51;;;;;;;3.50;2.50;;;;;;;-140.79;100.00;63287.88;5024389;28;20032;-52
2021/12/31 04:07:16;;;;;;;3.20;2.65;;;;;;;-140.79;100.00;63287.88;5024677;28;20022;-53
2021/12/31 04:09:42;;;;;;;3.45;2.58;;;;;;;-140.79;100.00;63287.88;5024865;28;20047;-53
2021/12/31 04:12:08;;;;;;;3.10;2.40;;;;;;;-140.79;100.00;63287.88;5024072;28;20037;-53
2021/12/31 04:14:33;;;;;;;3.08;2.40;;;;;;;-140.79;100.00;63287.88;5024361;28;20510;-52
2021/12/31 04:16:58;;;;;;;3.42;2.65;;;;;;;-140.79;100.00;63287.88;5024546;28;20403;-53
2021/12/31 04:19:24;;;;;;;3.38;2.72;;;;;;;-140.79;100.00;63287.88;5024468;28;20423;-53
2021/12/31 04:21:50;;;;;;;3.40;2.50;;;;;;;-140.79;100.00;63287.88;5024301;28;20026;-53
2021/12/31 04:24:28;;;;;;;3.13;2.30;;;;;;;-140.79;100.00;63287.88;5024651;28;20036;-54
2021/12/31 04:26:54;;;;;;;3.08;2.40;;;;;;;-140.79;100.00;63287.88;5024169;28;20033;-53
2021/12/31 04:29:19;;;;;;;3.17;2.40;;;;;;;-140.79;100.00;63287.88;5024354;28;20102;-53
2021/12/31 04:31:45;;;;;;;2.63;2.17;;;;;;;-140.79;100.00;63287.88;5024207;28;20033;-53
2021/12/31 04:34:10;;;;;;;3.00;2.28;;;;;;;-140.79;100.00;63287.88;5024527;28;20025;-53
2021/12/31 04:36:36;;;;;;;3.47;2.53;;;;;;;-140.79;100.00;63287.88;5024126;28;20654;-53
2021/12/31 04:39:01;;;;;;;4.03;2.72;;;;;;;-140.79;100.00;63287.88;5024363;28;20749;-53
2021/12/31 04:41:26;;;;;;;3.65;2.60;;;;;;;-140.79;100.00;63287.88;5024398;28;20498;-53
2021/12/31 04:43:52;;;;;;;3.58;2.55;;;;;;;-140.79;100.00;63287.88;5024310;28;20417;-52
2021/12/31 04:46:17;;;;;;;3.20;2.53;;;;;;;-140.79;100.00;63287.88;5024271;28;20026;-53
2021/12/31 04:48:43;;;;;;;3.20;2.40;;;;;;;-140.79;100.00;63287.88;5023877;28;20393;-53
2021/12/31 04:51:08;;;;;;;3.22;2.58;;;;;;;-140.79;100.00;63287.88;5024303;28;20021;-53
2021/12/31 04:53:34;;;;;;;3.63;2.65;;;;;;;-140.79;100.00;63287.88;5024302;28;20029;-52
2021/12/31 04:55:59;;;;;;;3.35;2.40;;;;;;;-140.79;100.00;63287.88;5024373;28;20476;-53
2021/12/31 04:58:25;;;;;;;2.90;2.10;;;;;;;-140.79;100.00;63287.88;5024323;28;20476;-53
2021/12/31 05:00:50;;;;;;;3.53;2.53;;;;;;;-140.79;100.00;63287.88;5023853;28;20033;-52
2021/12/31 05:03:16;;;;;;;3.10;2.28;;;;;;;-140.79;100.00;63287.88;5023963;28;20026;-53
2021/12/31 05:05:41;;;;;;;3.35;2.33;;;;;;;-140.79;100.00;63287.88;5024659;28;20030;-53
2021/12/31 05:08:07;;;;;;;3.13;2.47;;;;;;;-140.79;100.00;63287.88;5023794;28;20044;-53
2021/12/31 05:10:33;;;;;;;3.38;2.38;;;;;;;-140.79;100.00;63287.88;5024241;28;20040;-53
2021/12/31 05:12:59;;;;;;;3.25;2.40;;;;;;;-140.79;100.00;63287.88;5023781;28;20176;-52
2021/12/31 05:15:31;;;;;;;3.03;2.60;;;;;;;-140.79;100.00;63287.88;5023966;28;20025;-53
2021/12/31 05:17:57;;;;;;;3.70;2.42;;;;;;;-140.79;100.00;63287.88;5023959;28;20024;-52
2021/12/31 05:20:23;;;;;;;3.35;2.60;;;;;;;-140.79;100.00;63287.88;5023941;28;20037;-53
2021/12/31 05:22:49;;;;;;;3.35;2.45;;;;;;;-140.79;100.00;63287.88;5024194;28;20416;-53
2021/12/31 05:25:16;;;;;;;3.38;2.53;;;;;;;-140.79;100.00;63287.88;5026330;28;20026;-53
2021/12/31 05:27:42;;;;;;;3.38;2.40;;;;;;;-140.79;100.00;63287.88;5027473;28;20177;-53
2021/12/31 05:30:07;;;;;;;3.35;2.53;;;;;;;-140.79;100.00;63287.88;5028055;28;20041;-53
2021/12/31 05:32:33;;;;;;;3.78;2.85;;;;;;;-140.79;100.00;63287.88;5027751;28;20492;-52
2021/12/31 05:34:58;;;;;;;2.83;2.30;;;;;;;-140.79;100.00;63287.88;5027361;28;20029;-53
2021/12/31 05:37:24;;;;;;;3.38;2.20;;;;;;;-140.79;100.00;63287.88;5027623;28;20399;-53
2021/12/31 05:39:49;;;;;;;3.30;2.42;;;;;;;-140.79;100.00;63287.88;5027389;28;20415;-52
2021/12/31 05:42:14;;;;;;;2.85;2.42;;;;;;;-140.79;100.00;63287.88;5027434;28;20083;-55
2021/12/31 05:44:40;;;;;;;3.25;2.53;;;;;;;-140.79;100.00;63287.88;5025733;28;20037;-54
2021/12/31 05:47:06;;;;;;;3.78;2.30;;;;;;;-140.79;100.00;63287.88;5027371;28;20516;-53
2021/12/31 05:49:31;;;;;;;3.28;2.40;;;;;;;-140.79;100.00;63287.88;5027183;28;20042;-54
2021/12/31 05:51:57;;;;;;;3.78;2.63;;;;;;;-140.79;100.00;63287.88;5025740;28;20029;-54
2021/12/31 05:54:22;;;;;;;4.03;2.60;;;;;;;-140.79;100.00;63287.88;5026991;28;20045;-53
2021/12/31 05:56:47;;;;;;;3.70;2.60;;;;;;;-140.79;100.00;63287.88;5042073;28;20033;-52
2021/12/31 05:59:13;;;;;;;3.90;2.50;;;;;;;-140.79;100.00;63287.88;5027146;28;20480;-53
2021/12/31 06:01:38;;;;;;;3.03;2.20;;;;;;;-140.79;100.00;63287.88;5027311;28;20432;-54
2021/12/31 06:04:04;;;;;;;3.67;2.30;;;;;;;-140.79;100.00;63287.88;5026911;28;20033;-52
2021/12/31 06:06:29;;;;;;;3.20;2.35;;;;;;;-140.79;100.00;63287.88;5026964;28;20516;-53
2021/12/31 06:08:55;;;;;;;3.38;2.35;;;;;;;-140.79;100.00;63287.88;5026477;28;20483;-53
2021/12/31 06:11:20;;;;;;;3.55;2.58;;;;;;;-140.79;100.00;63287.88;5026797;28;20094;-54
2021/12/31 06:13:49;;;;;;;3.10;2.30;;;;;;;-140.79;100.00;63287.88;5041886;28;20111;-54
2021/12/31 06:16:15;;;;;;;3.40;2.50;;;;;;;-140.79;100.00;63287.88;5026745;28;20042;-52
2021/12/31 06:18:40;;;;;;;3.55;2.60;;;;;;;-140.79;100.00;63287.88;5026313;28;20025;-53
2021/12/31 06:21:06;;;;;;;2.88;2.28;;;;;;;-140.79;100.00;63287.88;5026692;28;20025;-56
2021/12/31 06:23:31;;;;;;;2.95;2.35;;;;;;;-140.79;100.00;63287.88;5026249;28;20064;-54
2021/12/31 06:25:57;;;;;;;3.20;2.40;;;;;;;-140.79;100.00;63287.88;5026660;28;20043;-55
2021/12/31 06:28:22;;;;;;;2.50;2.00;;;;;;;-140.79;100.00;63287.88;5026407;28;20184;-53
2021/12/31 06:30:48;;;;;;;3.15;2.15;;;;;;;-140.79;100.00;63287.88;5026351;28;20030;-55
2021/12/31 06:33:13;;;;;;;3.33;2.25;;;;;;;-140.79;100.00;63287.88;5026610;28;20022;-55
2021/12/31 06:35:38;;;;;;;2.65;2.25;;;;;;;-140.79;100.00;63287.88;5025352;28;20040;-53
2021/12/31 06:38:06;;;;;;;2.75;2.10;;;;;;;-140.79;100.00;63287.88;5026598;28;20030;-54
2021/12/31 06:40:31;;;;;;;2.55;1.85;;;;;;;-140.79;100.00;63287.88;5026453;28;20041;-53
2021/12/31 06:42:57;;;;;;;3.13;2.30;;;;;;;-140.79;100.00;63287.88;5026264;28;21768;-53
2021/12/31 06:45:22;;;;;;;2.90;2.30;;;;;;;-140.79;100.00;63287.88;5024886;28;20123;-56
2021/12/31 06:47:48;;;;;;;2.45;1.98;;;;;;;-140.79;100.00;63287.88;5026251;28;20041;-55
2021/12/31 06:50:13;;;;;;;2.70;1.98;;;;;;;-140.79;100.00;63287.88;5026283;28;20026;-54
2021/12/31 06:52:39;;;;;;;2.67;2.05;;;;;;;-140.79;100.00;63287.88;5026045;28;20033;-54
2021/12/31 06:55:07;;;;;;;2.92;2.05;;;;;;;-140.79;100.00;63287.88;5023089;28;20033;-55
2021/12/31 06:57:34;;;;;;;3.15;2.17;;;;;;;-140.79;100.00;63287.88;5024058;28;20022;-55
2021/12/31 06:59:59;;;;;;;2.65;2.13;;;;;;;-140.79;100.00;63287.88;5025955;28;20029;-55
2021/12/31 07:02:24;;;;;;;2.33;1.90;;;;;;;-140.79;100.00;63287.88;5024861;28;20033;-55
2021/12/31 07:04:50;;;;;;;2.42;1.90;;;;;;;-140.79;100.00;63287.88;5023862;28;20049;-55
2021/12/31 07:07:15;;;;;;;2.90;2.05;;;;;;;-140.79;100.00;63287.88;5025765;28;20554;-53
2021/12/31 07:09:41;;;;;;;3.75;2.13;;;;;;;-140.79;100.00;63287.88;5025873;28;20087;-55
2021/12/31 07:12:07;;;;;;;3.50;1.92;;;;;;;-140.79;100.00;63287.88;5025454;28;20021;-53
2021/12/31 07:14:32;;;;;;;2.50;1.85;;;;;;;-140.79;100.00;63287.88;5025238;28;20432;-53
2021/12/31 07:16:57;;;;;;;2.55;1.88;;;;;;;-140.79;100.00;63287.88;5025140;28;20033;-55
2021/12/31 07:19:23;;;;;;;2.20;1.90;;;;;;;-140.79;100.00;63287.88;5022579;28;20022;-55
2021/12/31 07:21:48;;;;;;;2.60;2.03;;;;;;;-140.79;100.00;63287.88;5024785;28;20033;-56
2021/12/31 07:24:14;;;;;;;3.83;1.95;;;;;;;-140.79;100.00;63287.88;5025205;28;20467;-56
2021/12/31 07:26:39;;;;;;;3.38;1.80;;;;;;;-140.79;100.00;63287.88;5024628;28;20535;-55
2021/12/31 07:29:04;;;;;;;2.92;1.75;;;;;;;-140.79;100.00;63287.88;5024411;28;20036;-56
2021/12/31 07:31:30;;;;;;;2.63;1.88;;;;;;;-140.79;100.00;63287.88;5025589;28;20029;-55
2021/12/31 07:33:55;;;;;;;3.30;2.00;;;;;;;-140.79;100.00;63287.88;5025416;28;20128;-56
2021/12/31 07:36:21;;;;;;;4.50;1.85;;;;;;;-140.79;100.00;63287.88;5025578;28;20026;-56
2021/12/31 07:38:55;;;;;;;2.97;2.00;;;;;;;-140.79;100.00;63287.88;5025143;28;20029;-56
2021/12/31 07:41:20;;;;;;;3.35;1.98;;;;;;;-140.79;100.00;63287.88;5025542;28;20500;-55
2021/12/31 07:43:46;;;;;;;3.17;2.00;;;;;;;-140.79;100.00;63287.88;5025304;28;20028;-56
2021/12/31 07:46:12;;;;;;;2.17;1.55;;;;;;;-140.79;100.00;63287.88;5019669;28;20032;-56
2021/12/31 07:48:38;;;;;;;2.47;1.85;;;;;;;-140.79;100.00;63287.88;5024694;28;20025;-53
2021/12/31 07:51:03;;;;;;;3.03;2.08;;;;;;;-140.79;100.00;63287.88;5022956;28;20778;-53
2021/12/31 07:53:29;;;;;;;2.70;1.92;;;;;;;-140.79;100.00;63287.88;5022754;28;20067;-56
2021/12/31 07:55:54;;;;;;;3.35;1.77;;;;;;;-140.79;100.00;63287.88;5023685;28;20049;-58
2021/12/31 07:58:19;;;;;;;2.55;1.90;;;;;;;-140.79;100.00;63287.88;5024156;28;20055;-56
2021/12/31 08:00:45;;;;;;;2.55;1.92;;;;;;;-140.79;100.00;63287.88;5022994;28;20408;-53
2021/12/31 08:03:11;;;;;;;3.22;1.83;;;;;;;-140.79;100.00;63287.88;5009324;28;20018;-56
2021/12/31 08:05:36;;;;;;;3.22;1.98;;;;;;;-140.79;100.00;63287.88;5010789;28;20014;-56
2021/12/31 08:08:04;;;;;;;3.08;1.77;;;;;;;-140.79;100.00;63287.88;5031423;28;20029;-56
2021/12/31 08:10:32;;;;;;;3.95;1.80;;;;;;;-140.79;100.00;63287.88;5013968;28;20033;-53
2021/12/31 08:12:59;;;;;;;27.60;3.25;;;;;;;-140.79;100.00;63287.88;5023597;28;20123;-55
2021/12/31 08:15:25;;;;;;;12.77;2.30;;;;;;;-140.79;100.00;63287.88;5008699;28;20030;-53
2021/12/31 08:17:52;;;;;;;6.68;2.10;;;;;;;-140.79;100.00;63287.88;5031811;28;20026;-54
2021/12/31 08:20:18;;;;;;;7.03;2.10;;;;;;;-140.79;100.00;63287.88;5014047;28;20048;-54
2021/12/31 08:22:43;;;;;;;19.08;2.88;;;;;;;-140.79;100.00;63287.88;5018912;28;20524;-54
2021/12/31 08:25:09;;;;;;;9.85;2.40;;;;;;;-140.79;100.00;63287.88;5008978;28;20025;-55
2021/12/31 08:27:34;;;;;;;8.52;2.20;;;;;;;-140.79;100.00;63287.88;5024583;28;20033;-54
2021/12/31 08:29:59;;;;;;;7.00;2.15;;;;;;;-140.79;100.00;63287.88;5023645;28;20029;-54
2021/12/31 08:32:25;;;;;;;6.38;2.30;;;;;;;-140.79;100.00;63287.88;5007854;28;20030;-54
2021/12/31 08:34:50;;;;;;;8.75;2.28;;;;;;;-140.79;100.00;63287.88;5015603;28;20018;-57
2021/12/31 08:37:16;;;;;;;6.68;2.10;;;;;;;-140.79;100.00;63287.88;5017504;28;20075;-57
2021/12/31 08:39:41;;;;;;;8.23;2.10;;;;;;;-140.79;100.00;63287.88;5022817;28;20010;-56
2021/12/31 08:42:07;;;;;;;4.97;1.83;;;;;;;-140.79;100.00;63287.88;5022583;28;20034;-57
2021/12/31 08:44:32;;;;;;;7.00;2.50;;;;;;;-140.79;100.00;63287.88;5019567;28;20029;-59
2021/12/31 08:46:57;;;;;;;4.68;2.10;;;;;;;-140.79;100.00;63287.88;5022282;28;20487;-56
2021/12/31 08:49:26;;;;;;;5.78;2.25;;;;;;;-140.79;100.00;63287.88;5021327;28;20100;-55
2021/12/31 08:51:51;;;;;;;5.40;2.30;;;;;;;-140.79;100.00;63287.88;5022703;28;20032;-58
2021/12/31 08:54:17;;;;;;;6.15;2.33;;;;;;;-140.79;100.00;63287.88;5023708;28;20026;-57
2021/12/31 08:56:45;;;;;;;3.30;2.20;;;;;;;-140.79;100.00;63287.88;5023319;28;20036;-55
2021/12/31 08:59:11;;;;;;;5.22;2.00;;;;;;;-140.79;100.00;63287.88;5008478;28;20408;-56
2021/12/31 09:01:36;;;;;;;3.67;1.90;;;;;;;-140.79;100.00;63287.88;5010682;28;20033;-56
2021/12/31 09:04:02;;;;;;;5.18;2.33;;;;;;;-140.79;100.00;63287.88;5019248;28;20431;-59
2021/12/31 09:06:27;;;;;;;6.15;2.10;;;;;;;-140.79;100.00;63287.88;5028287;28;20037;-55
2021/12/31 09:08:52;;;;;;;4.55;2.40;;;;;;;-140.79;100.00;63287.88;5024252;28;20040;-56
2021/12/31 09:11:18;;;;;;;4.65;2.33;;;;;;;-140.79;100.00;63287.88;5027474;28;20029;-57
2021/12/31 09:13:46;;;;;;;5.25;2.10;;;;;;;-140.79;100.00;63287.88;5027350;28;20037;-57
2021/12/31 09:16:11;;;;;;;4.07;2.00;;;;;;;-140.79;100.00;63287.88;5027521;28;20033;-52
2021/12/31 09:18:37;;;;;;;5.13;2.70;;;;;;;-140.79;100.00;63287.88;5028028;28;20499;-56
2021/12/31 09:21:02;;;;;;;4.68;2.50;;;;;;;-140.79;100.00;63287.88;5027936;28;20448;-55
2021/12/31 09:23:28;;;;;;;3.78;2.33;;;;;;;-140.79;100.00;63287.88;5025947;28;20504;-56
2021/12/31 09:25:55;;;;;;;4.63;2.40;;;;;;;-140.79;100.00;63287.88;5059568;28;20613;-57
2021/12/31 09:28:20;;;;;;;4.95;2.38;;;;;;;-140.79;100.00;63287.88;5027614;28;20477;-58
2021/12/31 09:30:46;;;;;;;3.55;2.50;;;;;;;-140.79;100.00;63287.88;5024921;28;20117;-51
2021/12/31 09:33:11;;;;;;;3.55;2.25;;;;;;;-140.79;100.00;63287.88;5014049;28;20376;-53
2021/12/31 09:35:37;;;;;;;4.70;2.35;;;;;;;-140.79;100.00;63287.88;5027244;28;20062;-60
2021/12/31 09:38:08;;;;;;;6.13;2.45;;;;;;;-140.79;100.00;63287.88;5007454;28;20560;-57
2021/12/31 09:40:34;;;;;;;3.80;2.28;;;;;;;-140.79;100.00;63287.88;5035838;28;20037;-58
2021/12/31 09:43:03;;;;;;;6.90;2.30;;;;;;;-140.79;100.00;63287.88;5025432;28;20025;-58
2021/12/31 09:45:30;;;;;;;3.35;2.10;;;;;;;-140.79;100.00;63287.88;5027047;28;20029;-57
2021/12/31 09:47:59;;;;;;;3.97;2.50;;;;;;;-140.79;100.00;63287.88;5017810;28;20042;-53
2021/12/31 09:50:27;;;;;;;7.03;4.20;;;;;;;-140.79;100.00;63287.88;5021891;28;20144;-55
2021/12/31 09:52:56;;;;;;;8.40;3.90;;;;;;;-140.79;100.00;63287.88;5027357;28;20037;-57
2021/12/31 09:55:34;;;;;;;5.25;3.05;;;;;;;-140.79;100.00;63287.88;5025509;28;20111;-57
2021/12/31 09:57:59;;;;;;;5.00;2.40;;;;;;;-140.79;100.00;63287.88;5026542;28;20030;-56
2021/12/31 10:00:26;;;;;;;2.95;2.20;;;;;;;-140.79;100.00;63287.88;5026775;28;20033;-54
2021/12/31 10:03:08;;;;;;;4.00;2.40;;;;;;;-140.79;100.00;63287.88;5026721;28;20060;-56
2021/12/31 10:05:44;;;;;;;4.35;2.40;;;;;;;-140.79;100.00;63287.88;5027002;28;20028;-56
2021/12/31 10:08:19;;;;;;;5.22;2.55;;;;;;;-140.79;100.00;63287.88;5026915;28;21394;-57
2021/12/31 10:11:06;;;;;;;3.58;2.22;;;;;;;-140.79;100.00;63287.88;5025369;28;20033;-56
2021/12/31 10:13:32;;;;;;;4.70;2.78;;;;;;;-140.79;100.00;63287.88;5034379;28;20014;-56
2021/12/31 10:15:58;;;;;;;4.78;2.50;;;;;;;-140.79;100.00;63287.88;5017394;28;20471;-56
2021/12/31 10:18:30;;;;;;;5.75;2.75;;;;;;;-140.79;100.00;63287.88;5026585;28;20480;-54
2021/12/31 10:20:55;;;;;;;3.30;2.33;;;;;;;-140.79;100.00;63287.88;5026337;28;20048;-53
2021/12/31 10:23:21;;;;;;;5.15;2.75;;;;;;;-140.79;100.00;63287.88;5026272;28;20038;-56
2021/12/31 10:25:47;;;;;;;5.95;2.78;;;;;;;-140.79;100.00;63287.88;5023334;28;20032;-54
2021/12/31 10:28:14;;;;;;;5.40;3.03;;;;;;;-140.79;100.00;63287.88;4996488;28;20454;-54
2021/12/31 10:30:40;;;;;;;6.15;3.30;;;;;;;-140.79;100.00;63287.88;5039282;28;20040;-57
2021/12/31 10:33:05;;;;;;;4.75;3.10;;;;;;;-140.79;100.00;63287.88;5025364;28;20029;-53
2021/12/31 10:35:44;;;;;;;5.00;3.22;;;;;;;-140.79;100.00;63287.88;5056476;28;20021;-59
2021/12/31 10:38:12;;;;;;;5.10;2.83;;;;;;;-140.79;100.00;63287.88;5019921;28;20088;-56
2021/12/31 10:40:45;;;;;;;5.63;3.33;;;;;;;-140.79;100.00;63287.88;5025833;28;20033;-56
2021/12/31 10:43:25;;;;;;;6.25;3.28;;;;;;;-140.79;100.00;63287.88;5016692;28;20029;-54
2021/12/31 10:46:01;;;;;;;4.85;3.35;;;;;;;-140.79;100.00;63287.88;5025058;28;20033;-58
2021/12/31 10:48:38;;;;;;;8.48;3.83;;;;;;;-140.79;100.00;63287.88;5026118;28;20036;-58
2021/12/31 10:51:03;;;;;;;6.38;4.00;;;;;;;-140.79;100.00;63287.88;5026059;28;20625;-58
2021/12/31 10:53:33;;;;;;;5.45;3.60;;;;;;;-140.79;100.00;63287.88;5026266;28;20071;-53
2021/12/31 10:56:09;;;;;;;5.68;3.80;;;;;;;-140.79;100.00;63287.88;5026280;28;20061;-55
2021/12/31 10:58:36;;;;;;;5.43;3.25;;;;;;;-140.79;100.00;63287.88;5026072;28;20032;-55
2021/12/31 11:01:03;;;;;;;5.05;3.30;;;;;;;-140.79;100.00;63287.88;5025760;28;20051;-52
2021/12/31 11:03:29;;;;;;;5.80;3.55;;;;;;;-140.79;100.00;63287.88;5024878;28;20111;-55
2021/12/31 11:05:56;;;;;;;4.05;3.17;;;;;;;-140.79;100.00;63287.88;5024596;28;20033;-56
2021/12/31 11:08:21;;;;;;;5.00;3.13;;;;;;;-140.79;100.00;63287.88;5025605;28;20519;-57
2021/12/31 11:10:47;;;;;;;4.45;2.83;;;;;;;-140.79;100.00;63287.88;5039449;28;20037;-55